createdAt,value
2022-12-18T00:01:26.376Z,101132.09
2022-12-18T00:03:55.287Z,101135.28
2022-12-18T00:06:23.856Z,101133.81
2022-12-18T00:08:52.009Z,101129.19
2022-12-18T00:11:22.386Z,101129.28
2022-12-18T00:13:52.755Z,101142.47
2022-12-18T00:16:23.030Z,101142.91
2022-12-18T00:18:52.180Z,101149.09
2022-12-18T00:21:20.417Z,101149.13
2022-12-18T00:23:49.086Z,101143.75
2022-12-18T00:26:22.166Z,101146.47
2022-12-18T00:28:52.726Z,101147.25
2022-12-18T00:31:22.900Z,101153.44
2022-12-18T00:33:54.619Z,101158.47
2022-12-18T00:36:25.414Z,101159.25
2022-12-18T00:38:53.976Z,101170.50
2022-12-18T00:41:45.520Z,101168.19
2022-12-18T00:44:19.638Z,101160.81
2022-12-18T00:46:48.941Z,101159.66
2022-12-18T00:49:19.941Z,101163.16
2022-12-18T00:51:48.485Z,101169.75
2022-12-18T00:54:16.590Z,101165.91
2022-12-18T00:56:51.213Z,101172.06
2022-12-18T00:59:19.250Z,101173.63
2022-12-18T01:01:48.016Z,101179.44
2022-12-18T01:04:15.834Z,101182.88
2022-12-18T01:06:46.585Z,101187.53
2022-12-18T01:09:14.287Z,101189.47
2022-12-18T01:11:41.745Z,101185.59
2022-12-18T01:14:09.048Z,101186.38
2022-12-18T01:16:38.554Z,101186.78
2022-12-18T01:19:05.681Z,101189.47
2022-12-18T01:21:33.696Z,101189.09
2022-12-18T01:24:05.073Z,101187.56
2022-12-18T01:26:32.503Z,101184.06
2022-12-18T01:29:01.800Z,101186.78
2022-12-18T01:31:32.186Z,101190.25
2022-12-18T01:34:02.429Z,101201.47
2022-12-18T01:36:32.990Z,101189.47
2022-12-18T01:39:01.871Z,101199.53
2022-12-18T01:41:49.921Z,101200.69
2022-12-18T01:44:55.420Z,101212.28
2022-12-18T01:47:41.672Z,101206.09
2022-12-18T01:50:16.244Z,101207.63
2022-12-18T01:52:48.197Z,101206.88
2022-12-18T01:55:19.356Z,101211.09
2022-12-18T01:57:53.461Z,101202.22
2022-12-18T02:00:25.002Z,101212.25
2022-12-18T02:02:53.278Z,101211.47
2022-12-18T02:05:34.205Z,101208.34
2022-12-18T02:08:27.358Z,101208.34
2022-12-18T02:11:21.734Z,101206.78
2022-12-18T02:14:03.160Z,101211.81
2022-12-18T02:16:33.726Z,101207.91
2022-12-18T02:19:08.243Z,101215.25
2022-12-18T02:21:45.837Z,101223.00
2022-12-18T02:24:30.716Z,101216.41
2022-12-18T02:27:01.904Z,101217.19
2022-12-18T02:29:57.881Z,101228.38
2022-12-18T02:32:29.856Z,101233.78
2022-12-18T02:34:59.674Z,101239.22
2022-12-18T02:37:31.536Z,101233.81
2022-12-18T02:40:04.346Z,101237.63
2022-12-18T02:42:33.593Z,101235.31
2022-12-18T02:45:08.661Z,101233.75
2022-12-18T02:47:41.533Z,101241.09
2022-12-18T02:50:31.417Z,101242.28
2022-12-18T02:53:11.206Z,101252.28
2022-12-18T02:56:04.638Z,101257.66
2022-12-18T02:58:45.184Z,101250.69
2022-12-18T03:01:29.436Z,101252.97
2022-12-18T03:04:03.878Z,101262.97
2022-12-18T03:06:41.361Z,101264.53
2022-12-18T03:09:19.553Z,101251.03
2022-12-18T03:12:14.173Z,101250.63
2022-12-18T03:14:43.478Z,101242.91
2022-12-18T03:17:15.870Z,101238.28
2022-12-18T03:19:45.117Z,101239.84
2022-12-18T03:22:13.706Z,101242.94
2022-12-18T03:24:47.611Z,101245.28
2022-12-18T03:27:21.243Z,101239.09
2022-12-18T03:29:56.644Z,101246.34
2022-12-18T03:32:32.128Z,101242.09
2022-12-18T03:35:05.502Z,101243.63
2022-12-18T03:37:36.573Z,101249.75
2022-12-18T03:40:05.814Z,101253.59
2022-12-18T03:42:54.701Z,101245.47
2022-12-18T03:45:34.139Z,101248.91
2022-12-18T03:48:09.196Z,101250.47
2022-12-18T03:50:56.174Z,101248.59
2022-12-18T03:53:40.728Z,101255.44
2022-12-18T03:56:10.479Z,101257.72
2022-12-18T03:58:43.232Z,101264.28
2022-12-18T04:01:30.320Z,101271.22
2022-12-18T04:04:03.065Z,101263.47
2022-12-18T04:06:34.785Z,101268.06
2022-12-18T04:09:02.781Z,101268.03
2022-12-18T04:11:32.036Z,101280.41
2022-12-18T04:14:02.726Z,101278.47
2022-12-18T04:16:33.181Z,101278.09
2022-12-18T04:19:04.693Z,101275.75
2022-12-18T04:21:38.116Z,101275.38
2022-12-18T04:24:09.428Z,101274.19
2022-12-18T04:26:39.781Z,101279.91
2022-12-18T04:29:17.464Z,101283.03
2022-12-18T04:31:44.480Z,101288.38
2022-12-18T04:34:14.531Z,101299.22
2022-12-18T04:36:50.728Z,101301.53
2022-12-18T04:39:19.646Z,101307.28
2022-12-18T04:41:49.106Z,101302.28
2022-12-18T04:44:17.598Z,101308.06
2022-12-18T04:46:44.871Z,101306.88
2022-12-18T04:49:14.757Z,101309.16
2022-12-18T04:51:41.833Z,101300.25
2022-12-18T04:54:09.120Z,101298.72
2022-12-18T04:56:36.130Z,101306.41
2022-12-18T04:59:03.509Z,101311.06
2022-12-18T05:01:34.530Z,101311.44
2022-12-18T05:04:05.120Z,101326.84
2022-12-18T05:06:32.150Z,101327.22
2022-12-18T05:08:59.940Z,101334.91
2022-12-18T05:11:26.883Z,101337.22
2022-12-18T05:13:54.133Z,101337.66
2022-12-18T05:16:21.131Z,101336.44
2022-12-18T05:18:48.411Z,101338.03
2022-12-18T05:21:15.582Z,101335.63
2022-12-18T05:23:43.348Z,101337.59
2022-12-18T05:26:18.992Z,101343.38
2022-12-18T05:28:47.024Z,101342.22
2022-12-18T05:31:14.979Z,101342.56
2022-12-18T05:33:42.789Z,101353.38
2022-12-18T05:36:10.775Z,101345.31
2022-12-18T05:38:40.296Z,101351.09
2022-12-18T05:41:08.685Z,101346.38
2022-12-18T05:43:38.360Z,101347.06
2022-12-18T05:46:08.159Z,101351.72
2022-12-18T05:48:35.589Z,101336.69
2022-12-18T05:51:08.566Z,101348.63
2022-12-18T05:53:39.604Z,101357.06
2022-12-18T05:56:09.184Z,101359.75
2022-12-18T05:58:38.099Z,101360.88
2022-12-18T06:01:15.047Z,101345.03
2022-12-18T06:03:42.921Z,101350.47
2022-12-18T06:06:18.853Z,101363.53
2022-12-18T06:08:46.952Z,101365.78
2022-12-18T06:11:17.845Z,101379.59
2022-12-18T06:13:45.337Z,101382.63
2022-12-18T06:16:12.426Z,101383.72
2022-12-18T06:18:39.867Z,101382.22
2022-12-18T06:21:07.385Z,101381.78
2022-12-18T06:23:37.614Z,101393.72
2022-12-18T06:26:07.004Z,101399.91
2022-12-18T06:28:34.289Z,101402.22
2022-12-18T06:31:03.573Z,101406.06
2022-12-18T06:33:31.682Z,101403.78
2022-12-18T06:36:04.439Z,101405.34
2022-12-18T06:38:33.627Z,101404.66
2022-12-18T06:41:01.096Z,101410.41
2022-12-18T06:43:30.789Z,101415.38
2022-12-18T06:46:01.817Z,101408.84
2022-12-18T06:48:29.565Z,101409.22
2022-12-18T06:50:56.854Z,101418.09
2022-12-18T06:53:24.120Z,101426.22
2022-12-18T06:55:51.355Z,101427.00
2022-12-18T06:58:18.691Z,101441.75
2022-12-18T07:00:48.448Z,101430.13
2022-12-18T07:03:16.043Z,101430.97
2022-12-18T07:05:45.448Z,101451.03
2022-12-18T07:08:15.209Z,101454.91
2022-12-18T07:10:48.164Z,101452.72
2022-12-18T07:13:19.704Z,101465.09
2022-12-18T07:15:49.431Z,101468.56
2022-12-18T07:18:16.728Z,101465.13
2022-12-18T07:20:43.734Z,101459.06
2022-12-18T07:23:11.194Z,101466.78
2022-12-18T07:25:38.596Z,101475.41
2022-12-18T07:28:05.929Z,101477.50
2022-12-18T07:30:32.976Z,101487.44
2022-12-18T07:33:00.282Z,101490.44
2022-12-18T07:35:27.264Z,101489.94
2022-12-18T07:37:54.495Z,101499.97
2022-12-18T07:40:21.417Z,101502.06
2022-12-18T07:42:48.668Z,101516.47
2022-12-18T07:45:15.709Z,101524.28
2022-12-18T07:47:42.990Z,101524.28
2022-12-18T07:50:10.633Z,101532.41
2022-12-18T07:52:37.991Z,101529.69
2022-12-18T07:55:05.556Z,101532.41
2022-12-18T07:57:50.213Z,101533.53
2022-12-18T08:00:18.553Z,101545.59
2022-12-18T08:02:46.057Z,101540.94
2022-12-18T08:05:14.357Z,101555.25
2022-12-18T08:07:42.235Z,101556.81
2022-12-18T08:10:11.883Z,101556.81
2022-12-18T08:12:39.321Z,101553.69
2022-12-18T08:15:07.211Z,101551.34
2022-12-18T08:17:34.726Z,101562.59
2022-12-18T08:20:03.081Z,101559.09
2022-12-18T08:22:36.531Z,101552.50
2022-12-18T08:25:04.840Z,101554.88
2022-12-18T08:27:32.719Z,101565.72
2022-12-18T08:30:00.047Z,101556.84
2022-12-18T08:32:33.437Z,101552.94
2022-12-18T08:35:00.498Z,101556.84
2022-12-18T08:37:27.932Z,101559.53
2022-12-18T08:39:54.915Z,101561.88
2022-12-18T08:42:40.699Z,101560.69
2022-12-18T08:45:08.339Z,101559.94
2022-12-18T08:47:35.900Z,101560.69
2022-12-18T08:50:03.163Z,101561.47
2022-12-18T08:52:33.601Z,101564.59
2022-12-18T08:55:01.467Z,101566.13
2022-12-18T08:57:28.655Z,101577.75
2022-12-18T08:59:56.246Z,101567.28
2022-12-18T09:02:26.003Z,101566.91
2022-12-18T09:04:57.276Z,101569.22
2022-12-18T09:07:24.950Z,101581.59
2022-12-18T09:09:52.921Z,101582.41
2022-12-18T09:12:20.055Z,101576.97
2022-12-18T09:14:48.056Z,101586.28
2022-12-18T09:17:15.410Z,101592.84
2022-12-18T09:19:45.231Z,101589.34
2022-12-18T09:22:12.495Z,101589.00
2022-12-18T09:24:40.147Z,101595.56
2022-12-18T09:27:07.287Z,101602.56
2022-12-18T09:29:34.874Z,101602.91
2022-12-18T09:32:04.039Z,101604.09
2022-12-18T09:34:31.397Z,101599.44
2022-12-18T09:36:58.552Z,101591.69
2022-12-18T09:39:28.277Z,101583.91
2022-12-18T09:41:58.358Z,101578.47
2022-12-18T09:44:47.132Z,101590.91
2022-12-18T09:47:19.781Z,101579.66
2022-12-18T09:49:57.939Z,101580.84
2022-12-18T09:52:32.055Z,101575.44
2022-12-18T09:55:17.625Z,101573.88
2022-12-18T09:57:52.354Z,101566.91
2022-12-18T10:00:22.793Z,101576.97
2022-12-18T10:02:58.433Z,101575.41
2022-12-18T10:05:55.090Z,101583.16
2022-12-18T10:09:05.264Z,101573.47
2022-12-18T10:11:41.079Z,101566.47
2022-12-18T10:14:19.778Z,101571.88
2022-12-18T10:16:59.399Z,101575.41
2022-12-18T10:19:26.395Z,101562.97
2022-12-18T10:22:12.652Z,101559.84
2022-12-18T10:25:02.628Z,101559.81
2022-12-18T10:27:30.844Z,101566.81
2022-12-18T10:29:59.296Z,101570.66
2022-12-18T10:32:30.548Z,101557.50
2022-12-18T10:35:00.704Z,101560.19
2022-12-18T10:37:30.926Z,101554.41
2022-12-18T10:40:16.652Z,101554.38
2022-12-18T10:43:04.239Z,101557.53
2022-12-18T10:45:31.785Z,101556.78
2022-12-18T10:48:00.098Z,101550.59
2022-12-18T10:51:09.164Z,101549.41
2022-12-18T10:53:26.416Z,101536.63
2022-12-18T10:55:56.610Z,101532.38
2022-12-18T10:58:27.348Z,101536.63
2022-12-18T11:01:21.768Z,101542.03
2022-12-18T11:04:10.284Z,101541.28
2022-12-18T11:06:54.720Z,101540.50
2022-12-18T11:09:24.942Z,101533.09
2022-12-18T11:11:54.980Z,101539.72
2022-12-18T11:14:29.962Z,101527.31
2022-12-18T11:19:54.035Z,101530.00
2022-12-18T11:22:33.155Z,101528.03
2022-12-18T11:25:34.664Z,101531.88
2022-12-18T11:28:25.460Z,101534.94
2022-12-18T11:31:24.042Z,101548.16
2022-12-18T11:34:28.048Z,101538.09
2022-12-18T11:36:53.569Z,101533.41
2022-12-18T11:39:40.392Z,101529.91
2022-12-18T11:42:21.461Z,101533.44
2022-12-18T11:44:53.721Z,101523.38
2022-12-18T11:47:38.173Z,101526.13
2022-12-18T11:50:15.407Z,101528.09
2022-12-18T11:52:44.038Z,101510.25
2022-12-18T11:55:24.484Z,101507.13
2022-12-18T11:57:59.824Z,101505.56
2022-12-18T12:00:27.177Z,101511.78
2022-12-18T12:03:25.585Z,101511.38
2022-12-18T12:06:03.180Z,101509.09
2022-12-18T12:09:26.163Z,101516.84
2022-12-18T12:12:05.338Z,101516.88
2022-12-18T12:14:54.670Z,101520.38
2022-12-18T12:17:39.154Z,101518.03
2022-12-18T12:20:18.043Z,101507.97
2022-12-18T12:23:06.935Z,101506.81
2022-12-18T12:26:03.685Z,101509.09
2022-12-18T12:29:01.412Z,101507.19
2022-12-18T12:31:38.936Z,101519.53
2022-12-18T12:34:23.987Z,101518.38
2022-12-18T12:37:19.694Z,101507.50
2022-12-18T12:39:48.939Z,101500.91
2022-12-18T12:43:04.513Z,101498.97
2022-12-18T12:45:42.275Z,101504.41
2022-12-18T12:48:19.588Z,101503.22
2022-12-18T12:50:47.703Z,101509.06
2022-12-18T12:53:28.066Z,101508.72
2022-12-18T12:55:56.159Z,101504.09
2022-12-18T12:58:44.443Z,101501.00
2022-12-18T13:01:23.437Z,101497.53
2022-12-18T13:03:58.704Z,101497.88
2022-12-18T13:06:41.573Z,101492.47
2022-12-18T13:09:12.087Z,101496.72
2022-12-18T13:12:00.627Z,101498.69
2022-12-18T13:14:37.803Z,101505.28
2022-12-18T13:17:37.582Z,101513.81
2022-12-18T13:20:11.500Z,101515.75
2022-12-18T13:22:44.613Z,101516.88
2022-12-18T13:25:44.612Z,101515.75
2022-12-18T13:28:16.960Z,101524.63
2022-12-18T13:30:53.735Z,101524.25
2022-12-18T13:33:26.124Z,101514.53
2022-12-18T13:35:54.852Z,101516.13
2022-12-18T13:38:39.557Z,101515.72
2022-12-18T13:41:16.331Z,101517.28
2022-12-18T13:43:47.374Z,101518.44
2022-12-18T13:46:21.408Z,101530.47
2022-12-18T13:49:18.630Z,101521.97
2022-12-18T13:51:50.302Z,101528.13
2022-12-18T13:54:46.401Z,101533.56
2022-12-18T13:57:26.759Z,101533.94
2022-12-18T13:59:53.819Z,101530.84
2022-12-18T14:02:27.402Z,101532.03
2022-12-18T14:04:55.518Z,101532.78
2022-12-18T14:07:34.697Z,101533.56
2022-12-18T14:13:07.960Z,101537.44
2022-12-18T14:15:42.593Z,101533.56
2022-12-18T14:18:28.642Z,101542.88
2022-12-18T14:20:58.658Z,101555.28
2022-12-18T14:23:38.774Z,101549.84
2022-12-18T14:26:28.322Z,101541.31
2022-12-18T14:29:19.081Z,101546.38
2022-12-18T14:31:46.953Z,101549.84
2022-12-18T14:34:18.304Z,101542.88
2022-12-18T14:36:54.460Z,101556.06
2022-12-18T14:39:21.920Z,101552.16
2022-12-18T14:41:54.213Z,101545.19
2022-12-18T14:44:22.803Z,101561.47
2022-12-18T14:46:52.220Z,101553.72
2022-12-18T14:49:31.337Z,101559.94
2022-12-18T14:52:07.585Z,101568.09
2022-12-18T14:54:38.255Z,101562.25
2022-12-18T14:57:14.842Z,101563.41
2022-12-18T14:59:42.377Z,101565.34
2022-12-18T15:02:25.466Z,101564.56
2022-12-18T15:05:12.902Z,101567.69
2022-12-18T15:07:43.714Z,101575.81
2022-12-18T15:10:15.959Z,101574.25
2022-12-18T15:12:46.059Z,101580.06
2022-12-18T15:15:39.231Z,101567.66
2022-12-18T15:18:13.255Z,101554.09
2022-12-18T15:20:44.362Z,101571.53
2022-12-18T15:23:49.587Z,101577.34
2022-12-18T15:26:21.762Z,101559.16
2022-12-18T15:29:01.427Z,101566.09
2022-12-18T15:31:36.812Z,101576.19
2022-12-18T15:34:13.763Z,101570.38
2022-12-18T15:36:41.673Z,101570.38
2022-12-18T15:39:14.459Z,101573.47
2022-12-18T15:42:04.796Z,101563.38
2022-12-18T15:44:36.149Z,101559.53
2022-12-18T15:47:04.538Z,101554.13
2022-12-18T15:49:32.456Z,101562.66
2022-12-18T15:52:04.458Z,101563.41
2022-12-18T15:54:51.723Z,101577.75
2022-12-18T15:57:25.743Z,101578.91
2022-12-18T15:59:55.675Z,101574.25
2022-12-18T16:02:24.591Z,101577.72
2022-12-18T16:04:54.480Z,101575.81
2022-12-18T16:07:24.967Z,101587.06
2022-12-18T16:09:54.346Z,101592.50
2022-12-18T16:12:26.998Z,101591.72
2022-12-18T16:14:54.890Z,101593.66
2022-12-18T16:17:25.819Z,101587.06
2022-12-18T16:19:54.521Z,101595.22
2022-12-18T16:22:25.466Z,101579.69
2022-12-18T16:24:54.953Z,101578.94
2022-12-18T16:27:24.869Z,101575.44
2022-12-18T16:29:53.554Z,101578.91
2022-12-18T16:32:24.653Z,101582.41
2022-12-18T16:34:56.373Z,101576.97
2022-12-18T16:37:28.448Z,101570.00
2022-12-18T16:39:56.915Z,101571.56
2022-12-18T16:42:25.841Z,101567.28
2022-12-18T16:44:54.453Z,101575.06
2022-12-18T16:47:26.256Z,101566.50
2022-12-18T16:49:55.472Z,101564.56
2022-12-18T16:52:24.329Z,101564.56
2022-12-18T16:54:52.680Z,101569.22
2022-12-18T16:57:24.017Z,101552.16
2022-12-18T17:00:02.963Z,101556.84
2022-12-18T17:02:34.153Z,101553.34
2022-12-18T17:05:02.558Z,101561.88
2022-12-18T17:07:30.778Z,101559.91
2022-12-18T17:10:01.609Z,101575.44
2022-12-18T17:12:30.276Z,101566.50
2022-12-18T17:14:58.290Z,101552.53
2022-12-18T17:17:27.080Z,101553.72
2022-12-18T17:19:54.745Z,101551.00
2022-12-18T17:22:26.971Z,101551.41
2022-12-18T17:24:55.151Z,101555.66
2022-12-18T17:27:27.502Z,101558.34
2022-12-18T17:29:58.979Z,101545.97
2022-12-18T17:32:27.528Z,101549.44
2022-12-18T17:34:57.087Z,101552.94
2022-12-18T17:37:26.141Z,101542.06
2022-12-18T17:39:56.815Z,101557.56
2022-12-18T17:42:25.063Z,101561.47
2022-12-18T17:44:53.686Z,101559.53
2022-12-18T17:47:21.991Z,101559.13
2022-12-18T17:49:49.966Z,101552.53
2022-12-18T17:52:22.158Z,101551.75
2022-12-18T17:54:50.604Z,101552.94
2022-12-18T17:57:18.987Z,101549.81
2022-12-18T17:59:48.700Z,101552.94
2022-12-18T18:02:17.568Z,101547.09
2022-12-18T18:04:45.463Z,101544.00
2022-12-18T18:07:13.852Z,101547.50
2022-12-18T18:09:42.706Z,101537.78
2022-12-18T18:12:29.243Z,101538.94
2022-12-18T18:14:57.113Z,101550.59
2022-12-18T18:17:25.897Z,101558.34
2022-12-18T18:19:54.132Z,101560.28
2022-12-18T18:22:23.391Z,101553.69
2022-12-18T18:24:51.929Z,101554.44
2022-12-18T18:27:20.153Z,101554.44
2022-12-18T18:29:51.720Z,101556.00
2022-12-18T18:32:19.726Z,101547.88
2022-12-18T18:34:47.248Z,101548.63
2022-12-18T18:37:15.529Z,101543.97
2022-12-18T18:39:43.350Z,101542.03
2022-12-18T18:42:11.215Z,101550.97
2022-12-18T18:44:44.517Z,101551.34
2022-12-18T18:47:26.589Z,101547.47
2022-12-18T18:49:54.766Z,101547.47
2022-12-18T18:52:25.627Z,101549.41
2022-12-18T18:55:12.167Z,101554.44
2022-12-18T18:57:42.629Z,101551.31
2022-12-18T19:00:14.837Z,101549.00
2022-12-18T19:02:43.307Z,101552.91
2022-12-18T19:05:11.395Z,101548.97
2022-12-18T19:07:39.582Z,101545.47
2022-12-18T19:10:07.812Z,101538.88
2022-12-18T19:12:53.907Z,101538.47
2022-12-18T19:15:23.225Z,101537.66
2022-12-18T19:17:54.070Z,101540.38
2022-12-18T19:20:23.657Z,101545.81
2022-12-18T19:22:56.196Z,101551.66
2022-12-18T19:25:40.146Z,101545.41
2022-12-18T19:28:16.431Z,101545.81
2022-12-18T19:30:50.872Z,101543.47
2022-12-18T19:36:21.805Z,101545.78
2022-12-18T19:38:56.672Z,101541.50
2022-12-18T19:41:25.629Z,101541.50
2022-12-18T19:43:59.949Z,101536.09
2022-12-18T19:46:29.170Z,101539.56
2022-12-18T19:49:00.295Z,101538.78
2022-12-18T19:51:32.285Z,101548.06
2022-12-18T19:54:01.940Z,101544.94
2022-12-18T19:56:33.458Z,101535.66
2022-12-18T19:59:03.019Z,101542.63
2022-12-18T20:01:33.883Z,101543.41
2022-12-18T20:04:02.754Z,101544.94
2022-12-18T20:06:48.258Z,101540.28
2022-12-18T20:09:17.151Z,101541.03
2022-12-18T20:11:47.221Z,101541.06
2022-12-18T20:14:22.482Z,101531.72
2022-12-18T20:16:53.079Z,101530.19
2022-12-18T20:19:24.313Z,101529.41
2022-12-18T20:21:52.184Z,101533.28
2022-12-18T20:24:19.992Z,101525.09
2022-12-18T20:26:49.185Z,101531.28
2022-12-18T20:29:17.558Z,101518.50
2022-12-18T20:31:46.592Z,101526.66
2022-12-18T20:34:16.030Z,101534.41
2022-12-18T20:36:46.291Z,101521.56
2022-12-18T20:39:14.454Z,101513.00
2022-12-18T20:41:44.261Z,101517.31
2022-12-18T20:44:22.644Z,101521.97
2022-12-18T20:47:08.543Z,101518.47
2022-12-18T20:49:36.430Z,101508.00
2022-12-18T20:52:06.865Z,101506.81
2022-12-18T20:54:37.795Z,101512.22
2022-12-18T20:57:05.619Z,101501.34
2022-12-18T20:59:33.815Z,101511.47
2022-12-18T21:02:01.160Z,101503.72
2022-12-18T21:04:29.525Z,101499.81
2022-12-18T21:07:02.287Z,101504.41
2022-12-18T21:09:37.436Z,101501.31
2022-12-18T21:12:30.213Z,101500.16
2022-12-18T21:15:09.175Z,101504.88
2022-12-18T21:17:44.239Z,101505.25
2022-12-18T21:20:17.900Z,101500.97
2022-12-18T21:22:45.928Z,101496.28
2022-12-18T21:25:13.394Z,101485.00
2022-12-18T21:27:42.734Z,101496.66
2022-12-18T21:30:10.864Z,101486.22
2022-12-18T21:32:38.102Z,101491.25
2022-12-18T21:35:08.368Z,101484.69
2022-12-18T21:37:35.797Z,101477.69
2022-12-18T21:40:04.583Z,101474.97
2022-12-18T21:42:50.404Z,101481.63
2022-12-18T21:45:17.829Z,101482.78
2022-12-18T21:47:47.274Z,101470.38
2022-12-18T21:50:14.650Z,101466.50
2022-12-18T21:52:41.872Z,101474.69
2022-12-18T21:55:10.353Z,101482.13
2022-12-18T21:57:40.420Z,101480.16
2022-12-18T22:00:18.237Z,101479.84
2022-12-18T22:02:48.579Z,101483.34
2022-12-18T22:05:37.858Z,101479.13
2022-12-18T22:08:06.945Z,101471.78
2022-12-18T22:10:35.087Z,101472.59
2022-12-18T22:13:02.449Z,101477.69
2022-12-18T22:15:29.812Z,101477.31
2022-12-18T22:18:00.058Z,101481.16
2022-12-18T22:20:29.917Z,101474.63
2022-12-18T22:22:57.820Z,101461.84
2022-12-18T22:25:25.145Z,101465.72
2022-12-18T22:28:10.903Z,101466.91
2022-12-18T22:30:38.479Z,101461.47
2022-12-18T22:33:05.549Z,101452.16
2022-12-18T22:35:32.910Z,101444.81
2022-12-18T22:38:02.400Z,101448.72
2022-12-18T22:40:29.967Z,101451.44
2022-12-18T22:42:59.271Z,101440.59
2022-12-18T22:45:26.965Z,101428.94
2022-12-18T22:47:55.575Z,101420.44
2022-12-18T22:50:23.594Z,101417.31
2022-12-18T22:52:53.042Z,101410.38
2022-12-18T22:55:20.516Z,101411.13
2022-12-18T22:57:48.998Z,101407.66
2022-12-18T23:00:17.890Z,101408.06
2022-12-18T23:02:59.484Z,101411.53
2022-12-18T23:05:29.588Z,101419.31
2022-12-18T23:07:56.616Z,101422.75
2022-12-18T23:10:24.115Z,101420.06
2022-12-18T23:12:51.175Z,101406.91
2022-12-18T23:15:19.869Z,101406.50
2022-12-18T23:17:56.548Z,101402.25
2022-12-18T23:20:24.067Z,101395.25
2022-12-18T23:22:51.113Z,101402.63
2022-12-18T23:25:18.649Z,101394.91
2022-12-18T23:27:45.633Z,101403.41
2022-12-18T23:30:13.424Z,101397.63
2022-12-18T23:32:40.488Z,101397.97
2022-12-18T23:35:08.228Z,101398.75
2022-12-18T23:37:58.849Z,101391.00
2022-12-18T23:40:24.572Z,101392.56
2022-12-18T23:42:51.510Z,101387.13
2022-12-18T23:45:18.806Z,101384.06
2022-12-18T23:47:51.130Z,101384.78
2022-12-18T23:50:18.730Z,101366.50
2022-12-18T23:52:45.674Z,101371.81
2022-12-18T23:55:13.092Z,101374.44
2022-12-18T23:57:40.075Z,101372.75
